sensor_id;sensor_type;location;lat;lon;timestamp;P1;durP1;ratioP1;P2;durP2;ratioP2
34060;SDS011;20336;-33.424;-70.638;2023-06-14T00:01:54;50.13;;;25.83;;
34060;SDS011;20336;-33.424;-70.638;2023-06-14T00:04:21;51.77;;;24.73;;
34060;SDS011;20336;-33.424;-70.638;2023-06-14T00:06:50;50.43;;;25.77;;
34060;SDS011;20336;-33.424;-70.638;2023-06-14T00:09:18;53.47;;;23.63;;
34060;SDS011;20336;-33.424;-70.638;2023-06-14T00:11:45;47.80;;;23.00;;
34060;SDS011;20336;-33.424;-70.638;2023-06-14T00:14:12;44.73;;;21.50;;
34060;SDS011;20336;-33.424;-70.638;2023-06-14T00:16:39;46.07;;;21.53;;
34060;SDS011;20336;-33.424;-70.638;2023-06-14T00:19:08;42.77;;;21.57;;
34060;SDS011;20336;-33.424;-70.638;2023-06-14T00:21:36;49.27;;;21.67;;
34060;SDS011;20336;-33.424;-70.638;2023-06-14T00:24:03;38.63;;;19.23;;
34060;SDS011;20336;-33.424;-70.638;2023-06-14T00:26:30;37.13;;;18.40;;
34060;SDS011;20336;-33.424;-70.638;2023-06-14T00:28:57;40.33;;;19.00;;
34060;SDS011;20336;-33.424;-70.638;2023-06-14T00:31:24;45.77;;;19.83;;
34060;SDS011;20336;-33.424;-70.638;2023-06-14T00:33:51;39.23;;;20.37;;
34060;SDS011;20336;-33.424;-70.638;2023-06-14T00:36:18;49.33;;;21.97;;
34060;SDS011;20336;-33.424;-70.638;2023-06-14T00:38:44;48.23;;;23.43;;
34060;SDS011;20336;-33.424;-70.638;2023-06-14T00:41:11;47.93;;;22.53;;
34060;SDS011;20336;-33.424;-70.638;2023-06-14T00:43:38;46.97;;;22.90;;
34060;SDS011;20336;-33.424;-70.638;2023-06-14T00:46:05;50.20;;;23.77;;
34060;SDS011;20336;-33.424;-70.638;2023-06-14T00:48:32;49.07;;;23.87;;
34060;SDS011;20336;-33.424;-70.638;2023-06-14T00:50:59;49.80;;;23.83;;
34060;SDS011;20336;-33.424;-70.638;2023-06-14T00:53:29;46.57;;;23.77;;
34060;SDS011;20336;-33.424;-70.638;2023-06-14T00:55:59;48.60;;;23.80;;
34060;SDS011;20336;-33.424;-70.638;2023-06-14T00:58:26;52.43;;;24.13;;
34060;SDS011;20336;-33.424;-70.638;2023-06-14T01:00:54;47.00;;;22.77;;
34060;SDS011;20336;-33.424;-70.638;2023-06-14T01:03:21;44.40;;;23.13;;
34060;SDS011;20336;-33.424;-70.638;2023-06-14T01:05:50;47.43;;;24.13;;
34060;SDS011;20336;-33.424;-70.638;2023-06-14T01:11:07;48.57;;;22.83;;
34060;SDS011;20336;-33.424;-70.638;2023-06-14T01:13:38;50.30;;;23.70;;
34060;SDS011;20336;-33.424;-70.638;2023-06-14T01:16:05;51.23;;;23.47;;
34060;SDS011;20336;-33.424;-70.638;2023-06-14T01:18:33;48.73;;;24.37;;
34060;SDS011;20336;-33.424;-70.638;2023-06-14T01:21:00;53.13;;;24.27;;
34060;SDS011;20336;-33.424;-70.638;2023-06-14T01:23:31;58.67;;;25.87;;
34060;SDS011;20336;-33.424;-70.638;2023-06-14T01:25:58;52.17;;;25.93;;
34060;SDS011;20336;-33.424;-70.638;2023-06-14T01:28:28;58.63;;;26.00;;
34060;SDS011;20336;-33.424;-70.638;2023-06-14T01:31:00;64.60;;;27.87;;
34060;SDS011;20336;-33.424;-70.638;2023-06-14T01:33:29;54.73;;;27.40;;
34060;SDS011;20336;-33.424;-70.638;2023-06-14T01:35:57;66.77;;;29.80;;
34060;SDS011;20336;-33.424;-70.638;2023-06-14T01:38:25;55.50;;;29.93;;
34060;SDS011;20336;-33.424;-70.638;2023-06-14T01:40:53;64.80;;;30.60;;
34060;SDS011;20336;-33.424;-70.638;2023-06-14T01:43:20;61.57;;;29.47;;
34060;SDS011;20336;-33.424;-70.638;2023-06-14T01:45:48;60.20;;;28.00;;
34060;SDS011;20336;-33.424;-70.638;2023-06-14T01:48:15;56.43;;;26.70;;
34060;SDS011;20336;-33.424;-70.638;2023-06-14T01:50:42;51.77;;;26.70;;
34060;SDS011;20336;-33.424;-70.638;2023-06-14T01:53:09;54.70;;;27.57;;
34060;SDS011;20336;-33.424;-70.638;2023-06-14T01:55:36;60.33;;;28.27;;
34060;SDS011;20336;-33.424;-70.638;2023-06-14T01:58:06;63.43;;;28.50;;
34060;SDS011;20336;-33.424;-70.638;2023-06-14T02:00:33;54.43;;;26.80;;
34060;SDS011;20336;-33.424;-70.638;2023-06-14T02:03:00;59.73;;;29.03;;
34060;SDS011;20336;-33.424;-70.638;2023-06-14T02:05:29;59.77;;;27.83;;
34060;SDS011;20336;-33.424;-70.638;2023-06-14T02:07:56;55.90;;;27.60;;
34060;SDS011;20336;-33.424;-70.638;2023-06-14T02:10:23;55.33;;;27.53;;
34060;SDS011;20336;-33.424;-70.638;2023-06-14T02:12:50;60.27;;;28.13;;
34060;SDS011;20336;-33.424;-70.638;2023-06-14T02:15:17;63.13;;;29.13;;
34060;SDS011;20336;-33.424;-70.638;2023-06-14T02:17:48;57.87;;;29.37;;
34060;SDS011;20336;-33.424;-70.638;2023-06-14T02:20:15;63.83;;;30.70;;
34060;SDS011;20336;-33.424;-70.638;2023-06-14T02:22:42;67.17;;;32.17;;
34060;SDS011;20336;-33.424;-70.638;2023-06-14T02:25:09;58.13;;;28.70;;
34060;SDS011;20336;-33.424;-70.638;2023-06-14T02:27:36;57.40;;;28.77;;
34060;SDS011;20336;-33.424;-70.638;2023-06-14T02:30:02;60.47;;;28.30;;
34060;SDS011;20336;-33.424;-70.638;2023-06-14T02:32:30;58.13;;;27.13;;
34060;SDS011;20336;-33.424;-70.638;2023-06-14T02:34:59;56.63;;;24.57;;
34060;SDS011;20336;-33.424;-70.638;2023-06-14T02:37:26;57.90;;;24.93;;
34060;SDS011;20336;-33.424;-70.638;2023-06-14T02:39:53;48.80;;;24.13;;
34060;SDS011;20336;-33.424;-70.638;2023-06-14T02:42:20;51.47;;;25.87;;
34060;SDS011;20336;-33.424;-70.638;2023-06-14T02:44:47;55.17;;;26.67;;
34060;SDS011;20336;-33.424;-70.638;2023-06-14T02:47:19;54.30;;;27.43;;
34060;SDS011;20336;-33.424;-70.638;2023-06-14T02:49:46;60.17;;;27.70;;
34060;SDS011;20336;-33.424;-70.638;2023-06-14T02:52:13;48.90;;;24.73;;
34060;SDS011;20336;-33.424;-70.638;2023-06-14T02:54:40;50.50;;;26.03;;
34060;SDS011;20336;-33.424;-70.638;2023-06-14T02:57:07;63.27;;;26.93;;
34060;SDS011;20336;-33.424;-70.638;2023-06-14T02:59:34;53.27;;;23.40;;
34060;SDS011;20336;-33.424;-70.638;2023-06-14T03:02:01;48.50;;;23.33;;
34060;SDS011;20336;-33.424;-70.638;2023-06-14T03:04:28;45.33;;;22.93;;
34060;SDS011;20336;-33.424;-70.638;2023-06-14T03:07:00;46.80;;;20.93;;
34060;SDS011;20336;-33.424;-70.638;2023-06-14T03:09:28;45.93;;;20.60;;
34060;SDS011;20336;-33.424;-70.638;2023-06-14T03:11:55;50.83;;;20.83;;
34060;SDS011;20336;-33.424;-70.638;2023-06-14T03:14:21;42.37;;;20.30;;
34060;SDS011;20336;-33.424;-70.638;2023-06-14T03:16:48;39.40;;;19.10;;
34060;SDS011;20336;-33.424;-70.638;2023-06-14T03:19:15;42.37;;;20.53;;
34060;SDS011;20336;-33.424;-70.638;2023-06-14T03:21:42;42.87;;;19.60;;
34060;SDS011;20336;-33.424;-70.638;2023-06-14T03:24:10;45.57;;;21.03;;
34060;SDS011;20336;-33.424;-70.638;2023-06-14T03:26:36;51.93;;;24.43;;
34060;SDS011;20336;-33.424;-70.638;2023-06-14T03:29:03;48.17;;;22.97;;
34060;SDS011;20336;-33.424;-70.638;2023-06-14T03:31:30;45.80;;;22.47;;
34060;SDS011;20336;-33.424;-70.638;2023-06-14T03:33:58;43.97;;;21.53;;
34060;SDS011;20336;-33.424;-70.638;2023-06-14T03:36:25;45.80;;;20.93;;
34060;SDS011;20336;-33.424;-70.638;2023-06-14T03:38:53;40.53;;;20.63;;
34060;SDS011;20336;-33.424;-70.638;2023-06-14T03:41:20;43.57;;;19.73;;
34060;SDS011;20336;-33.424;-70.638;2023-06-14T03:43:47;32.63;;;15.80;;
34060;SDS011;20336;-33.424;-70.638;2023-06-14T03:46:14;25.43;;;13.23;;
34060;SDS011;20336;-33.424;-70.638;2023-06-14T03:48:41;23.57;;;11.30;;
34060;SDS011;20336;-33.424;-70.638;2023-06-14T03:51:08;28.73;;;13.70;;
34060;SDS011;20336;-33.424;-70.638;2023-06-14T03:53:35;37.20;;;16.87;;
34060;SDS011;20336;-33.424;-70.638;2023-06-14T03:56:02;40.40;;;18.23;;
34060;SDS011;20336;-33.424;-70.638;2023-06-14T03:58:29;37.60;;;19.07;;
34060;SDS011;20336;-33.424;-70.638;2023-06-14T04:00:56;43.63;;;20.33;;
34060;SDS011;20336;-33.424;-70.638;2023-06-14T04:03:23;39.13;;;20.30;;
34060;SDS011;20336;-33.424;-70.638;2023-06-14T04:05:55;34.03;;;18.20;;
34060;SDS011;20336;-33.424;-70.638;2023-06-14T04:08:22;38.73;;;16.70;;
34060;SDS011;20336;-33.424;-70.638;2023-06-14T04:10:50;29.37;;;15.97;;
34060;SDS011;20336;-33.424;-70.638;2023-06-14T04:13:16;35.20;;;17.10;;
34060;SDS011;20336;-33.424;-70.638;2023-06-14T04:15:43;38.43;;;18.50;;
34060;SDS011;20336;-33.424;-70.638;2023-06-14T04:18:11;46.47;;;18.70;;
34060;SDS011;20336;-33.424;-70.638;2023-06-14T04:20:38;45.83;;;19.63;;
34060;SDS011;20336;-33.424;-70.638;2023-06-14T04:23:16;40.30;;;19.43;;
34060;SDS011;20336;-33.424;-70.638;2023-06-14T04:25:44;43.43;;;19.90;;
34060;SDS011;20336;-33.424;-70.638;2023-06-14T04:28:12;43.37;;;19.13;;
34060;SDS011;20336;-33.424;-70.638;2023-06-14T04:30:43;38.23;;;18.10;;
34060;SDS011;20336;-33.424;-70.638;2023-06-14T04:33:12;34.37;;;17.00;;
34060;SDS011;20336;-33.424;-70.638;2023-06-14T04:35:40;33.50;;;17.07;;
34060;SDS011;20336;-33.424;-70.638;2023-06-14T04:38:06;38.07;;;18.57;;
34060;SDS011;20336;-33.424;-70.638;2023-06-14T04:40:36;33.90;;;17.40;;
34060;SDS011;20336;-33.424;-70.638;2023-06-14T04:43:10;36.07;;;18.20;;
34060;SDS011;20336;-33.424;-70.638;2023-06-14T04:45:37;34.20;;;15.30;;
34060;SDS011;20336;-33.424;-70.638;2023-06-14T04:48:05;25.87;;;12.20;;
34060;SDS011;20336;-33.424;-70.638;2023-06-14T04:50:32;24.43;;;12.17;;
34060;SDS011;20336;-33.424;-70.638;2023-06-14T04:53:00;30.80;;;14.63;;
34060;SDS011;20336;-33.424;-70.638;2023-06-14T04:55:28;28.13;;;13.77;;
34060;SDS011;20336;-33.424;-70.638;2023-06-14T04:57:55;27.57;;;13.00;;
34060;SDS011;20336;-33.424;-70.638;2023-06-14T05:00:22;28.13;;;13.70;;
34060;SDS011;20336;-33.424;-70.638;2023-06-14T05:02:49;29.43;;;14.67;;
34060;SDS011;20336;-33.424;-70.638;2023-06-14T05:05:18;27.03;;;13.67;;
34060;SDS011;20336;-33.424;-70.638;2023-06-14T05:07:45;32.10;;;16.17;;
34060;SDS011;20336;-33.424;-70.638;2023-06-14T05:10:12;38.37;;;16.03;;
34060;SDS011;20336;-33.424;-70.638;2023-06-14T05:12:39;31.13;;;15.00;;
34060;SDS011;20336;-33.424;-70.638;2023-06-14T05:15:06;31.80;;;15.40;;
34060;SDS011;20336;-33.424;-70.638;2023-06-14T05:17:34;29.73;;;13.40;;
34060;SDS011;20336;-33.424;-70.638;2023-06-14T05:20:01;31.57;;;13.30;;
34060;SDS011;20336;-33.424;-70.638;2023-06-14T05:22:28;24.90;;;12.90;;
34060;SDS011;20336;-33.424;-70.638;2023-06-14T05:24:55;28.10;;;13.87;;
34060;SDS011;20336;-33.424;-70.638;2023-06-14T05:27:22;33.07;;;14.93;;
34060;SDS011;20336;-33.424;-70.638;2023-06-14T05:29:50;36.67;;;13.90;;
34060;SDS011;20336;-33.424;-70.638;2023-06-14T05:32:21;27.63;;;14.37;;
34060;SDS011;20336;-33.424;-70.638;2023-06-14T05:34:47;32.10;;;15.03;;
34060;SDS011;20336;-33.424;-70.638;2023-06-14T05:37:15;31.73;;;15.70;;
34060;SDS011;20336;-33.424;-70.638;2023-06-14T05:39:42;29.23;;;15.23;;
34060;SDS011;20336;-33.424;-70.638;2023-06-14T05:42:09;35.07;;;15.70;;
34060;SDS011;20336;-33.424;-70.638;2023-06-14T05:44:36;32.10;;;15.20;;
34060;SDS011;20336;-33.424;-70.638;2023-06-14T05:47:03;30.00;;;16.00;;
34060;SDS011;20336;-33.424;-70.638;2023-06-14T05:49:30;31.37;;;15.07;;
34060;SDS011;20336;-33.424;-70.638;2023-06-14T05:51:57;38.17;;;17.47;;
34060;SDS011;20336;-33.424;-70.638;2023-06-14T05:54:23;33.20;;;16.57;;
34060;SDS011;20336;-33.424;-70.638;2023-06-14T05:56:51;35.97;;;18.20;;
34060;SDS011;20336;-33.424;-70.638;2023-06-14T05:59:18;40.70;;;18.97;;
34060;SDS011;20336;-33.424;-70.638;2023-06-14T06:01:45;40.97;;;19.20;;
34060;SDS011;20336;-33.424;-70.638;2023-06-14T06:04:11;38.10;;;19.00;;
34060;SDS011;20336;-33.424;-70.638;2023-06-14T06:06:38;40.53;;;19.23;;
34060;SDS011;20336;-33.424;-70.638;2023-06-14T06:09:05;39.00;;;19.23;;
34060;SDS011;20336;-33.424;-70.638;2023-06-14T06:11:32;40.47;;;18.73;;
34060;SDS011;20336;-33.424;-70.638;2023-06-14T06:13:59;41.67;;;17.93;;
34060;SDS011;20336;-33.424;-70.638;2023-06-14T06:16:26;37.57;;;18.00;;
34060;SDS011;20336;-33.424;-70.638;2023-06-14T06:18:52;42.50;;;18.73;;
34060;SDS011;20336;-33.424;-70.638;2023-06-14T06:21:19;36.87;;;18.67;;
34060;SDS011;20336;-33.424;-70.638;2023-06-14T06:23:46;40.63;;;19.37;;
34060;SDS011;20336;-33.424;-70.638;2023-06-14T06:26:13;47.50;;;20.73;;
34060;SDS011;20336;-33.424;-70.638;2023-06-14T06:28:40;43.43;;;21.53;;
34060;SDS011;20336;-33.424;-70.638;2023-06-14T06:31:07;36.13;;;18.43;;
34060;SDS011;20336;-33.424;-70.638;2023-06-14T06:33:35;36.53;;;17.47;;
34060;SDS011;20336;-33.424;-70.638;2023-06-14T06:36:02;32.70;;;15.93;;
34060;SDS011;20336;-33.424;-70.638;2023-06-14T06:38:29;32.83;;;15.37;;
34060;SDS011;20336;-33.424;-70.638;2023-06-14T06:40:56;29.67;;;15.60;;
34060;SDS011;20336;-33.424;-70.638;2023-06-14T06:43:23;29.03;;;14.23;;
34060;SDS011;20336;-33.424;-70.638;2023-06-14T06:45:49;35.10;;;15.47;;
34060;SDS011;20336;-33.424;-70.638;2023-06-14T06:48:16;30.27;;;14.63;;
34060;SDS011;20336;-33.424;-70.638;2023-06-14T06:50:43;28.47;;;14.83;;
34060;SDS011;20336;-33.424;-70.638;2023-06-14T06:53:10;30.00;;;15.10;;
34060;SDS011;20336;-33.424;-70.638;2023-06-14T06:55:37;22.77;;;12.60;;
34060;SDS011;20336;-33.424;-70.638;2023-06-14T06:58:04;20.13;;;10.60;;
34060;SDS011;20336;-33.424;-70.638;2023-06-14T07:00:31;24.70;;;11.57;;
34060;SDS011;20336;-33.424;-70.638;2023-06-14T07:02:57;30.30;;;11.57;;
34060;SDS011;20336;-33.424;-70.638;2023-06-14T07:05:24;27.13;;;12.30;;
34060;SDS011;20336;-33.424;-70.638;2023-06-14T07:07:51;25.00;;;11.23;;
34060;SDS011;20336;-33.424;-70.638;2023-06-14T07:10:18;19.63;;;10.13;;
34060;SDS011;20336;-33.424;-70.638;2023-06-14T07:12:45;16.53;;;8.67;;
34060;SDS011;20336;-33.424;-70.638;2023-06-14T07:15:12;18.83;;;8.33;;
34060;SDS011;20336;-33.424;-70.638;2023-06-14T07:17:39;23.00;;;9.30;;
34060;SDS011;20336;-33.424;-70.638;2023-06-14T07:20:06;20.30;;;9.13;;
34060;SDS011;20336;-33.424;-70.638;2023-06-14T07:22:37;17.80;;;9.37;;
34060;SDS011;20336;-33.424;-70.638;2023-06-14T07:25:06;14.77;;;7.87;;
34060;SDS011;20336;-33.424;-70.638;2023-06-14T07:27:33;16.63;;;8.20;;
34060;SDS011;20336;-33.424;-70.638;2023-06-14T07:30:00;17.10;;;8.23;;
34060;SDS011;20336;-33.424;-70.638;2023-06-14T07:32:27;19.17;;;9.80;;
34060;SDS011;20336;-33.424;-70.638;2023-06-14T07:34:54;18.53;;;10.00;;
34060;SDS011;20336;-33.424;-70.638;2023-06-14T07:37:21;19.57;;;9.17;;
34060;SDS011;20336;-33.424;-70.638;2023-06-14T07:39:48;18.83;;;10.13;;
34060;SDS011;20336;-33.424;-70.638;2023-06-14T07:42:15;20.77;;;11.00;;
34060;SDS011;20336;-33.424;-70.638;2023-06-14T07:44:42;22.23;;;11.27;;
34060;SDS011;20336;-33.424;-70.638;2023-06-14T07:47:08;25.40;;;11.87;;
34060;SDS011;20336;-33.424;-70.638;2023-06-14T07:49:35;24.83;;;11.43;;
34060;SDS011;20336;-33.424;-70.638;2023-06-14T07:52:03;22.27;;;12.00;;
34060;SDS011;20336;-33.424;-70.638;2023-06-14T07:54:30;28.33;;;12.60;;
34060;SDS011;20336;-33.424;-70.638;2023-06-14T07:56:58;29.60;;;13.27;;
34060;SDS011;20336;-33.424;-70.638;2023-06-14T07:59:26;24.07;;;12.73;;
34060;SDS011;20336;-33.424;-70.638;2023-06-14T08:01:53;23.63;;;12.97;;
34060;SDS011;20336;-33.424;-70.638;2023-06-14T08:04:19;26.13;;;12.40;;
34060;SDS011;20336;-33.424;-70.638;2023-06-14T08:06:47;28.03;;;11.57;;
34060;SDS011;20336;-33.424;-70.638;2023-06-14T08:09:13;29.73;;;12.40;;
34060;SDS011;20336;-33.424;-70.638;2023-06-14T08:11:40;25.17;;;12.53;;
34060;SDS011;20336;-33.424;-70.638;2023-06-14T08:14:08;30.90;;;13.20;;
34060;SDS011;20336;-33.424;-70.638;2023-06-14T08:16:34;23.60;;;12.33;;
34060;SDS011;20336;-33.424;-70.638;2023-06-14T08:19:01;25.93;;;12.73;;
34060;SDS011;20336;-33.424;-70.638;2023-06-14T08:21:28;23.47;;;13.10;;
34060;SDS011;20336;-33.424;-70.638;2023-06-14T08:23:55;24.97;;;12.83;;
34060;SDS011;20336;-33.424;-70.638;2023-06-14T08:26:22;28.20;;;13.67;;
34060;SDS011;20336;-33.424;-70.638;2023-06-14T08:28:49;31.30;;;12.13;;
34060;SDS011;20336;-33.424;-70.638;2023-06-14T08:31:15;28.43;;;12.93;;
34060;SDS011;20336;-33.424;-70.638;2023-06-14T08:33:42;21.80;;;10.90;;
34060;SDS011;20336;-33.424;-70.638;2023-06-14T08:36:09;20.83;;;11.17;;
34060;SDS011;20336;-33.424;-70.638;2023-06-14T08:38:37;27.67;;;10.87;;
34060;SDS011;20336;-33.424;-70.638;2023-06-14T08:41:04;26.80;;;11.97;;
34060;SDS011;20336;-33.424;-70.638;2023-06-14T08:43:32;22.60;;;11.63;;
34060;SDS011;20336;-33.424;-70.638;2023-06-14T08:46:00;25.30;;;11.73;;
34060;SDS011;20336;-33.424;-70.638;2023-06-14T08:48:27;25.33;;;11.20;;
34060;SDS011;20336;-33.424;-70.638;2023-06-14T08:50:55;25.53;;;11.87;;
34060;SDS011;20336;-33.424;-70.638;2023-06-14T08:53:32;26.50;;;12.27;;
34060;SDS011;20336;-33.424;-70.638;2023-06-14T08:55:59;24.87;;;12.50;;
34060;SDS011;20336;-33.424;-70.638;2023-06-14T08:58:30;29.10;;;14.50;;
34060;SDS011;20336;-33.424;-70.638;2023-06-14T09:00:59;26.83;;;13.93;;
34060;SDS011;20336;-33.424;-70.638;2023-06-14T09:03:27;28.10;;;13.97;;
34060;SDS011;20336;-33.424;-70.638;2023-06-14T09:05:58;25.83;;;13.03;;
34060;SDS011;20336;-33.424;-70.638;2023-06-14T09:08:26;23.37;;;11.53;;
34060;SDS011;20336;-33.424;-70.638;2023-06-14T09:10:56;27.50;;;12.03;;
34060;SDS011;20336;-33.424;-70.638;2023-06-14T09:13:23;22.83;;;11.60;;
34060;SDS011;20336;-33.424;-70.638;2023-06-14T09:15:50;24.40;;;12.23;;
34060;SDS011;20336;-33.424;-70.638;2023-06-14T09:18:17;34.83;;;16.53;;
34060;SDS011;20336;-33.424;-70.638;2023-06-14T09:20:45;43.73;;;16.73;;
34060;SDS011;20336;-33.424;-70.638;2023-06-14T09:23:20;31.40;;;15.03;;
34060;SDS011;20336;-33.424;-70.638;2023-06-14T09:25:47;30.93;;;15.13;;
34060;SDS011;20336;-33.424;-70.638;2023-06-14T09:28:14;30.87;;;14.50;;
34060;SDS011;20336;-33.424;-70.638;2023-06-14T09:30:41;29.00;;;13.80;;
34060;SDS011;20336;-33.424;-70.638;2023-06-14T09:33:08;34.40;;;14.10;;
34060;SDS011;20336;-33.424;-70.638;2023-06-14T09:35:35;28.87;;;14.07;;
34060;SDS011;20336;-33.424;-70.638;2023-06-14T09:38:02;32.70;;;15.53;;
34060;SDS011;20336;-33.424;-70.638;2023-06-14T09:40:28;32.43;;;13.93;;
34060;SDS011;20336;-33.424;-70.638;2023-06-14T09:43:01;27.30;;;12.17;;
34060;SDS011;20336;-33.424;-70.638;2023-06-14T09:45:30;26.87;;;12.37;;
34060;SDS011;20336;-33.424;-70.638;2023-06-14T09:47:58;23.23;;;12.80;;
34060;SDS011;20336;-33.424;-70.638;2023-06-14T09:50:24;27.80;;;13.33;;
34060;SDS011;20336;-33.424;-70.638;2023-06-14T09:52:52;30.03;;;11.87;;
34060;SDS011;20336;-33.424;-70.638;2023-06-14T09:55:19;18.90;;;10.30;;
34060;SDS011;20336;-33.424;-70.638;2023-06-14T09:57:46;23.33;;;9.77;;
34060;SDS011;20336;-33.424;-70.638;2023-06-14T10:00:14;21.00;;;9.43;;
34060;SDS011;20336;-33.424;-70.638;2023-06-14T10:02:41;20.60;;;9.60;;
34060;SDS011;20336;-33.424;-70.638;2023-06-14T10:05:13;16.90;;;8.83;;
34060;SDS011;20336;-33.424;-70.638;2023-06-14T10:07:42;17.27;;;8.77;;
34060;SDS011;20336;-33.424;-70.638;2023-06-14T10:10:10;15.63;;;8.17;;
34060;SDS011;20336;-33.424;-70.638;2023-06-14T10:12:37;19.23;;;9.10;;
34060;SDS011;20336;-33.424;-70.638;2023-06-14T10:15:04;18.97;;;9.23;;
34060;SDS011;20336;-33.424;-70.638;2023-06-14T10:17:40;16.57;;;8.90;;
34060;SDS011;20336;-33.424;-70.638;2023-06-14T10:22:44;19.60;;;9.37;;
34060;SDS011;20336;-33.424;-70.638;2023-06-14T10:25:26;18.47;;;8.70;;
34060;SDS011;20336;-33.424;-70.638;2023-06-14T10:28:03;18.90;;;8.73;;
34060;SDS011;20336;-33.424;-70.638;2023-06-14T10:30:31;20.30;;;8.70;;
34060;SDS011;20336;-33.424;-70.638;2023-06-14T10:33:04;24.97;;;8.50;;
34060;SDS011;20336;-33.424;-70.638;2023-06-14T10:35:35;16.77;;;8.10;;
34060;SDS011;20336;-33.424;-70.638;2023-06-14T10:38:11;21.57;;;8.00;;
34060;SDS011;20336;-33.424;-70.638;2023-06-14T10:40:39;18.97;;;10.17;;
34060;SDS011;20336;-33.424;-70.638;2023-06-14T10:43:24;23.97;;;10.50;;
34060;SDS011;20336;-33.424;-70.638;2023-06-14T10:48:40;24.97;;;10.93;;
34060;SDS011;20336;-33.424;-70.638;2023-06-14T10:51:17;29.63;;;12.27;;
34060;SDS011;20336;-33.424;-70.638;2023-06-14T10:53:50;27.13;;;9.90;;
34060;SDS011;20336;-33.424;-70.638;2023-06-14T10:56:27;17.67;;;9.87;;
34060;SDS011;20336;-33.424;-70.638;2023-06-14T10:58:54;18.97;;;9.23;;
34060;SDS011;20336;-33.424;-70.638;2023-06-14T11:01:25;19.80;;;9.20;;
34060;SDS011;20336;-33.424;-70.638;2023-06-14T11:03:55;15.17;;;7.67;;
34060;SDS011;20336;-33.424;-70.638;2023-06-14T11:06:23;14.17;;;6.17;;
34060;SDS011;20336;-33.424;-70.638;2023-06-14T11:11:24;14.77;;;7.13;;
34060;SDS011;20336;-33.424;-70.638;2023-06-14T11:13:56;14.23;;;7.70;;
34060;SDS011;20336;-33.424;-70.638;2023-06-14T11:16:22;12.87;;;6.40;;
34060;SDS011;20336;-33.424;-70.638;2023-06-14T11:18:55;13.93;;;6.77;;
34060;SDS011;20336;-33.424;-70.638;2023-06-14T11:21:23;11.53;;;6.30;;
34060;SDS011;20336;-33.424;-70.638;2023-06-14T11:23:55;12.77;;;6.20;;
34060;SDS011;20336;-33.424;-70.638;2023-06-14T11:26:25;12.20;;;5.60;;
34060;SDS011;20336;-33.424;-70.638;2023-06-14T11:28:56;10.30;;;5.23;;
34060;SDS011;20336;-33.424;-70.638;2023-06-14T11:31:23;12.17;;;6.33;;
34060;SDS011;20336;-33.424;-70.638;2023-06-14T11:33:50;11.53;;;6.10;;
34060;SDS011;20336;-33.424;-70.638;2023-06-14T11:36:17;12.97;;;6.13;;
34060;SDS011;20336;-33.424;-70.638;2023-06-14T11:38:45;15.13;;;6.33;;
34060;SDS011;20336;-33.424;-70.638;2023-06-14T11:41:12;16.60;;;5.50;;
34060;SDS011;20336;-33.424;-70.638;2023-06-14T11:43:39;12.33;;;6.10;;
34060;SDS011;20336;-33.424;-70.638;2023-06-14T11:46:12;16.47;;;6.67;;
34060;SDS011;20336;-33.424;-70.638;2023-06-14T11:48:43;15.27;;;7.07;;
34060;SDS011;20336;-33.424;-70.638;2023-06-14T11:51:10;12.90;;;6.23;;
34060;SDS011;20336;-33.424;-70.638;2023-06-14T11:53:37;11.10;;;5.93;;
34060;SDS011;20336;-33.424;-70.638;2023-06-14T11:56:04;11.97;;;6.43;;
34060;SDS011;20336;-33.424;-70.638;2023-06-14T11:58:31;15.30;;;6.53;;
34060;SDS011;20336;-33.424;-70.638;2023-06-14T12:00:58;15.33;;;7.37;;
34060;SDS011;20336;-33.424;-70.638;2023-06-14T12:03:25;18.33;;;7.30;;
34060;SDS011;20336;-33.424;-70.638;2023-06-14T12:06:06;15.43;;;7.50;;
34060;SDS011;20336;-33.424;-70.638;2023-06-14T12:08:36;14.77;;;6.90;;
34060;SDS011;20336;-33.424;-70.638;2023-06-14T12:11:07;15.13;;;6.90;;
34060;SDS011;20336;-33.424;-70.638;2023-06-14T12:13:40;11.67;;;5.90;;
34060;SDS011;20336;-33.424;-70.638;2023-06-14T12:16:10;16.93;;;7.03;;
34060;SDS011;20336;-33.424;-70.638;2023-06-14T12:18:37;15.03;;;6.93;;
34060;SDS011;20336;-33.424;-70.638;2023-06-14T12:21:05;16.07;;;8.13;;
34060;SDS011;20336;-33.424;-70.638;2023-06-14T12:23:45;20.60;;;8.87;;
34060;SDS011;20336;-33.424;-70.638;2023-06-14T12:26:16;14.23;;;8.03;;
34060;SDS011;20336;-33.424;-70.638;2023-06-14T12:28:46;19.93;;;8.60;;
34060;SDS011;20336;-33.424;-70.638;2023-06-14T12:31:14;14.63;;;7.90;;
34060;SDS011;20336;-33.424;-70.638;2023-06-14T12:33:41;18.00;;;8.77;;
34060;SDS011;20336;-33.424;-70.638;2023-06-14T12:36:09;17.93;;;9.60;;
34060;SDS011;20336;-33.424;-70.638;2023-06-14T12:38:36;19.30;;;9.23;;
34060;SDS011;20336;-33.424;-70.638;2023-06-14T12:41:03;17.33;;;8.73;;
34060;SDS011;20336;-33.424;-70.638;2023-06-14T12:43:31;21.50;;;9.37;;
34060;SDS011;20336;-33.424;-70.638;2023-06-14T12:45:58;29.17;;;9.93;;
34060;SDS011;20336;-33.424;-70.638;2023-06-14T12:48:25;20.63;;;9.70;;
34060;SDS011;20336;-33.424;-70.638;2023-06-14T12:50:56;22.13;;;9.87;;
34060;SDS011;20336;-33.424;-70.638;2023-06-14T12:53:23;23.20;;;10.37;;
34060;SDS011;20336;-33.424;-70.638;2023-06-14T12:55:50;22.80;;;10.07;;
34060;SDS011;20336;-33.424;-70.638;2023-06-14T12:58:17;23.10;;;10.57;;
34060;SDS011;20336;-33.424;-70.638;2023-06-14T13:00:45;18.40;;;8.93;;
34060;SDS011;20336;-33.424;-70.638;2023-06-14T13:03:12;17.53;;;8.83;;
34060;SDS011;20336;-33.424;-70.638;2023-06-14T13:05:39;19.20;;;8.63;;
34060;SDS011;20336;-33.424;-70.638;2023-06-14T13:08:07;16.47;;;8.93;;
34060;SDS011;20336;-33.424;-70.638;2023-06-14T13:10:34;15.03;;;8.53;;
34060;SDS011;20336;-33.424;-70.638;2023-06-14T13:13:01;22.80;;;9.27;;
34060;SDS011;20336;-33.424;-70.638;2023-06-14T13:15:28;27.37;;;10.90;;
34060;SDS011;20336;-33.424;-70.638;2023-06-14T13:17:55;23.87;;;11.00;;
34060;SDS011;20336;-33.424;-70.638;2023-06-14T13:20:21;24.47;;;11.10;;
34060;SDS011;20336;-33.424;-70.638;2023-06-14T13:22:48;23.43;;;11.87;;
34060;SDS011;20336;-33.424;-70.638;2023-06-14T13:25:15;22.83;;;10.57;;
34060;SDS011;20336;-33.424;-70.638;2023-06-14T13:27:42;23.47;;;11.50;;
34060;SDS011;20336;-33.424;-70.638;2023-06-14T13:30:09;24.33;;;11.67;;
34060;SDS011;20336;-33.424;-70.638;2023-06-14T13:32:36;21.33;;;11.27;;
34060;SDS011;20336;-33.424;-70.638;2023-06-14T13:35:03;21.00;;;9.63;;
34060;SDS011;20336;-33.424;-70.638;2023-06-14T13:37:30;21.40;;;10.63;;
34060;SDS011;20336;-33.424;-70.638;2023-06-14T13:39:57;18.93;;;9.57;;
34060;SDS011;20336;-33.424;-70.638;2023-06-14T13:42:24;28.67;;;12.67;;
34060;SDS011;20336;-33.424;-70.638;2023-06-14T13:44:51;29.77;;;13.20;;
34060;SDS011;20336;-33.424;-70.638;2023-06-14T13:47:18;30.47;;;13.83;;
34060;SDS011;20336;-33.424;-70.638;2023-06-14T13:49:45;34.20;;;14.43;;
34060;SDS011;20336;-33.424;-70.638;2023-06-14T13:52:12;30.07;;;14.97;;
34060;SDS011;20336;-33.424;-70.638;2023-06-14T13:54:39;34.50;;;15.93;;
34060;SDS011;20336;-33.424;-70.638;2023-06-14T13:57:06;37.53;;;15.20;;
34060;SDS011;20336;-33.424;-70.638;2023-06-14T13:59:34;42.53;;;18.83;;
34060;SDS011;20336;-33.424;-70.638;2023-06-14T14:02:01;40.17;;;16.63;;
34060;SDS011;20336;-33.424;-70.638;2023-06-14T14:04:29;41.67;;;17.97;;